Time;durP1;ratioP1;P1;durP2;ratioP2;P2;SDS_P1;SDS_P2;PMS_P1;PMS_P2;Temp;Humidity;BMP_temperature;BMP_pressure;BME280_temperature;BME280_humidity;BME280_pressure;Samples;Min_cycle;Max_cycle;Signal;HPM_P1;HPM_P2
2021/06/08 00:02:07;;;;;;;6.80;2.47;;;;;;;17.40;49.60;98763.47;5092894;28;20498;-73
2021/06/08 00:04:33;;;;;;;10.68;2.20;;;;;;;17.31;50.36;98772.66;5075308;28;20052;-73
2021/06/08 00:06:59;;;;;;;3.90;2.60;;;;;;;17.16;50.62;98762.63;5092881;28;20432;-73
2021/06/08 00:09:24;;;;;;;7.20;2.78;;;;;;;17.09;50.99;98777.88;5058262;28;20078;-73
2021/06/08 00:11:50;;;;;;;4.25;3.08;;;;;;;17.07;51.41;98777.19;5109931;28;20043;-74
2021/06/08 00:14:16;;;;;;;8.98;2.90;;;;;;;17.09;50.75;98783.28;5112034;28;20525;-73
2021/06/08 00:16:42;;;;;;;10.18;5.85;;;;;;;17.07;51.04;98771.78;5112818;28;20134;-72
2021/06/08 00:19:08;;;;;;;13.68;7.32;;;;;;;17.09;51.22;98777.88;5095415;28;20043;-73
2021/06/08 00:21:34;;;;;;;16.67;6.72;;;;;;;17.11;50.91;98767.75;5112306;28;20039;-72
2021/06/08 00:24:00;;;;;;;6.40;3.60;;;;;;;17.09;51.02;98768.94;5111835;28;20043;-72
2021/06/08 00:26:26;;;;;;;10.65;5.07;;;;;;;17.06;51.24;98780.91;5112767;28;20047;-72
2021/06/08 00:28:52;;;;;;;12.48;6.10;;;;;;;16.95;52.08;98768.66;5113062;28;20047;-74
2021/06/08 00:31:18;;;;;;;15.98;7.53;;;;;;;16.80;52.56;98761.50;5077990;28;20134;-73
2021/06/08 00:33:44;;;;;;;15.20;8.30;;;;;;;16.73;53.01;98772.13;5061071;28;20575;-73
2021/06/08 00:36:11;;;;;;;18.15;7.57;;;;;;;16.65;53.27;98769.47;5112161;28;20398;-74
2021/06/08 00:38:37;;;;;;;14.48;6.97;;;;;;;16.71;53.19;98769.59;5094900;28;20487;-73
2021/06/08 00:41:03;;;;;;;18.75;6.93;;;;;;;16.67;53.40;98773.69;5094928;28;20463;-74
2021/06/08 00:43:29;;;;;;;16.52;7.93;;;;;;;16.59;53.82;98775.56;5077913;28;20044;-73
2021/06/08 00:45:55;;;;;;;21.30;10.45;;;;;;;16.52;54.58;98780.81;5094648;28;20050;-73
2021/06/08 00:48:21;;;;;;;23.25;11.05;;;;;;;16.53;54.33;98771.72;5111447;28;20075;-73
2021/06/08 00:50:47;;;;;;;23.35;10.90;;;;;;;16.54;54.57;98762.59;5111936;28;20074;-74
2021/06/08 00:53:13;;;;;;;19.95;10.27;;;;;;;16.59;54.36;98771.03;5077505;28;20063;-73
2021/06/08 00:55:39;;;;;;;22.75;10.32;;;;;;;16.81;54.00;98773.97;5077782;28;20138;-73
2021/06/08 00:58:05;;;;;;;18.17;10.05;;;;;;;16.90;53.79;98778.31;5094659;28;20508;-73
2021/06/08 01:00:31;;;;;;;18.45;9.30;;;;;;;16.95;53.47;98767.81;5094283;28;20121;-73
2021/06/08 01:02:57;;;;;;;19.90;9.55;;;;;;;17.08;52.91;98769.97;5112461;28;20123;-72
2021/06/08 01:05:23;;;;;;;25.40;8.40;;;;;;;17.26;52.70;98769.66;5094430;28;20092;-73
2021/06/08 01:07:49;;;;;;;17.35;8.57;;;;;;;17.32;52.55;98766.25;5094820;28;20043;-76
2021/06/08 01:10:15;;;;;;;23.08;8.48;;;;;;;17.49;52.58;98770.50;5060951;28;20100;-74
2021/06/08 01:12:41;;;;;;;13.05;7.38;;;;;;;17.48;52.50;98761.53;5112658;28;20456;-73
2021/06/08 01:15:07;;;;;;;15.35;7.40;;;;;;;17.42;53.04;98766.84;5060428;28;20031;-73
2021/06/08 01:17:33;;;;;;;20.63;7.60;;;;;;;17.46;52.84;98763.59;5114890;28;20040;-74
2021/06/08 01:19:59;;;;;;;12.15;7.25;;;;;;;17.56;52.91;98768.75;5115371;28;20074;-74
2021/06/08 01:22:25;;;;;;;21.27;12.70;;;;;;;17.61;53.24;98768.22;5115168;28;20076;-73
2021/06/08 01:24:51;;;;;;;22.42;13.13;;;;;;;17.50;53.51;98774.88;5098341;28;20062;-74
2021/06/08 01:27:20;;;;;;;18.88;11.32;;;;;;;17.17;54.80;98767.00;5098070;28;20043;-74
2021/06/08 01:29:47;;;;;;;21.77;13.68;;;;;;;17.31;54.55;98776.22;5064609;28;20040;-74
2021/06/08 01:32:13;;;;;;;33.40;18.65;;;;;;;17.29;54.58;98772.00;5115635;28;20046;-74
2021/06/08 01:34:39;;;;;;;27.63;19.45;;;;;;;17.41;55.02;98775.94;5114724;28;20119;-73
2021/06/08 01:37:05;;;;;;;28.88;18.52;;;;;;;17.46;54.86;98778.97;5098059;28;20491;-74
2021/06/08 01:39:32;;;;;;;34.33;17.23;;;;;;;17.52;54.45;98772.81;5097686;28;20043;-73
2021/06/08 01:41:58;;;;;;;32.90;16.80;;;;;;;17.56;54.51;98776.84;5115995;28;20048;-74
2021/06/08 01:44:24;;;;;;;32.83;16.65;;;;;;;17.54;54.84;98768.09;5081193;28;20183;-72
2021/06/08 01:46:50;;;;;;;37.25;18.58;;;;;;;17.54;55.20;98775.38;5097195;28;20406;-73
2021/06/08 01:49:16;;;;;;;30.08;18.17;;;;;;;17.53;54.91;98769.13;5114293;28;20047;-73
2021/06/08 01:51:56;;;;;;;29.77;18.42;;;;;;;17.89;54.43;98782.00;5115981;28;20119;-74
2021/06/08 01:54:49;;;;;;;36.40;20.20;;;;;;;18.07;54.33;98787.09;5117837;27;20047;-73
2021/06/08 01:57:23;;;;;;;33.20;21.17;;;;;;;18.08;53.95;98776.06;5103231;28;20071;-74
2021/06/08 02:00:09;;;;;;;41.10;22.63;;;;;;;18.24;54.15;98782.34;5081299;28;20039;-74
2021/06/08 02:03:10;;;;;;;52.38;25.75;;;;;;;18.33;54.23;98781.22;5066546;28;20035;-72
2021/06/08 02:05:45;;;;;;;54.70;24.35;;;;;;;18.32;53.79;98771.44;5101931;28;20058;-74
2021/06/08 02:08:53;;;;;;;44.17;25.02;;;;;;;18.58;53.61;98781.78;5064954;28;20054;-75
2021/06/08 02:11:40;;;;;;;54.55;27.80;;;;;;;18.75;53.59;98779.75;5114968;28;20116;-74
2021/06/08 02:14:39;;;;;;;60.60;27.60;;;;;;;19.04;53.28;98782.41;5097171;28;20125;-74
2021/06/08 02:17:26;;;;;;;46.97;25.40;;;;;;;19.29;52.47;98792.88;5064469;28;20059;-73
2021/06/08 02:19:53;;;;;;;55.00;25.10;;;;;;;19.46;52.14;98791.59;5097934;28;20051;-75
2021/06/08 02:22:23;;;;;;;57.47;25.75;;;;;;;19.58;51.75;98791.94;5081430;28;20050;-74
2021/06/08 02:24:49;;;;;;;61.47;23.80;;;;;;;19.59;51.77;98789.00;5080772;28;20557;-72
2021/06/08 02:27:15;;;;;;;46.90;23.20;;;;;;;19.72;51.51;98787.50;5078913;28;20127;-74
2021/06/08 02:29:43;;;;;;;63.03;24.35;;;;;;;19.89;51.39;98791.59;5079872;28;20544;-73
2021/06/08 02:32:10;;;;;;;57.15;22.27;;;;;;;19.86;51.23;98790.13;5096941;28;20062;-73
2021/06/08 02:34:36;;;;;;;49.03;22.45;;;;;;;20.03;51.11;98793.38;5080338;28;20126;-74
2021/06/08 02:37:02;;;;;;;56.90;21.42;;;;;;;20.02;51.20;98789.00;5062891;28;20051;-73
2021/06/08 02:39:28;;;;;;;59.13;21.85;;;;;;;20.09;51.16;98791.78;5097013;28;20557;-73
2021/06/08 02:41:54;;;;;;;58.75;21.98;;;;;;;20.21;50.77;98786.63;5114793;28;20130;-76
2021/06/08 02:44:21;;;;;;;57.17;22.88;;;;;;;20.39;50.69;98792.41;5096555;28;20051;-73
2021/06/08 02:46:47;;;;;;;88.13;32.70;;;;;;;20.37;49.95;98791.75;5096600;28;20078;-75
2021/06/08 02:49:13;;;;;;;83.68;29.27;;;;;;;20.22;50.55;98793.75;5063238;28;20122;-75
2021/06/08 02:51:39;;;;;;;72.07;27.35;;;;;;;20.27;50.93;98796.69;5046311;28;20043;-74
2021/06/08 02:54:05;;;;;;;73.22;26.88;;;;;;;20.37;50.72;98798.00;5062799;28;20112;-74
2021/06/08 02:56:31;;;;;;;74.65;26.17;;;;;;;20.33;51.12;98802.16;5063078;28;20047;-73
2021/06/08 02:58:57;;;;;;;82.38;25.42;;;;;;;20.37;51.55;98802.59;5062859;28;20049;-74
2021/06/08 03:01:23;;;;;;;59.83;23.67;;;;;;;20.51;51.01;98792.72;5079193;28;20035;-75
2021/06/08 03:03:51;;;;;;;65.95;23.05;;;;;;;20.53;51.20;98796.88;5079535;28;20043;-73
2021/06/08 03:06:22;;;;;;;56.47;23.73;;;;;;;20.76;50.87;98793.03;5096297;28;20058;-74
2021/06/08 03:09:03;;;;;;;52.38;21.95;;;;;;;20.92;50.79;98800.03;5062818;28;20088;-78
2021/06/08 03:11:32;;;;;;;39.75;20.50;;;;;;;20.88;50.93;98805.03;5079233;28;20490;-73
2021/06/08 03:13:58;;;;;;;48.92;18.98;;;;;;;21.03;50.72;98803.00;5095746;28;20082;-75
2021/06/08 03:16:25;;;;;;;44.45;17.70;;;;;;;21.06;50.41;98807.16;5113967;28;20213;-73
2021/06/08 03:18:52;;;;;;;45.40;19.25;;;;;;;21.08;50.36;98800.50;5078983;28;20039;-73
2021/06/08 03:21:24;;;;;;;46.70;17.58;;;;;;;21.36;49.87;98799.56;5062456;28;20402;-76
2021/06/08 03:23:51;;;;;;;42.70;20.15;;;;;;;21.46;49.05;98800.00;5079164;28;20043;-75
2021/06/08 03:26:17;;;;;;;39.45;21.42;;;;;;;21.56;49.24;98808.59;5045262;28;20092;-75
2021/06/08 03:28:43;;;;;;;41.95;19.35;;;;;;;21.71;49.10;98794.00;5095496;28;20077;-75
2021/06/08 03:31:10;;;;;;;37.88;20.42;;;;;;;21.49;49.24;98807.75;5062174;28;20040;-75
2021/06/08 03:33:36;;;;;;;39.70;19.45;;;;;;;21.42;49.95;98804.19;5078877;28;20104;-75
2021/06/08 03:36:02;;;;;;;38.90;20.17;;;;;;;21.28;49.99;98805.16;5106026;27;20046;-74
2021/06/08 03:38:29;;;;;;;48.10;23.55;;;;;;;21.25;50.39;98794.69;5094666;28;20419;-74
2021/06/08 03:40:55;;;;;;;52.70;22.95;;;;;;;21.46;50.09;98802.72;5078229;28;20124;-74
2021/06/08 03:43:21;;;;;;;35.42;23.08;;;;;;;21.48;49.24;98794.38;5095356;28;20463;-74
2021/06/08 03:45:48;;;;;;;33.33;21.23;;;;;;;21.64;48.63;98804.84;5095225;28;20096;-74
2021/06/08 03:48:14;;;;;;;49.42;23.77;;;;;;;21.79;48.20;98801.94;5078628;28;20047;-81
2021/06/08 03:50:40;;;;;;;42.67;23.95;;;;;;;21.76;48.30;98796.91;5061802;28;20144;-77
2021/06/08 03:53:06;;;;;;;48.60;23.52;;;;;;;21.82;47.95;98806.97;5074722;28;20383;-77
2021/06/08 03:55:32;;;;;;;43.80;21.15;;;;;;;21.76;48.20;98802.34;5091954;28;20054;-73
2021/06/08 03:58:00;;;;;;;33.58;20.83;;;;;;;21.95;48.25;98806.97;5092860;28;20047;-75
2021/06/08 04:00:26;;;;;;;32.72;19.42;;;;;;;22.18;47.85;98811.19;5058778;28;20040;-75
2021/06/08 04:02:52;;;;;;;33.30;17.45;;;;;;;22.34;47.50;98810.75;5091772;28;20047;-76
2021/06/08 04:05:18;;;;;;;32.25;13.63;;;;;;;22.45;47.12;98812.81;5074536;28;20555;-76
2021/06/08 04:07:45;;;;;;;33.33;12.05;;;;;;;22.39;47.00;98807.41;5074330;28;20070;-74
2021/06/08 04:10:18;;;;;;;21.17;9.43;;;;;;;22.44;46.98;98815.75;5057901;28;20154;-73
2021/06/08 04:12:44;;;;;;;36.40;8.27;;;;;;;22.57;47.24;98803.97;5058910;28;20047;-76
2021/06/08 04:15:11;;;;;;;21.98;8.90;;;;;;;22.63;47.15;98801.25;5093073;28;20591;-77
2021/06/08 04:17:37;;;;;;;19.13;7.57;;;;;;;22.86;47.10;98803.47;5058401;28;20051;-77
2021/06/08 04:20:05;;;;;;;31.48;17.20;;;;;;;22.88;46.14;98808.75;5058172;28;20048;-76
2021/06/08 04:22:32;;;;;;;44.10;24.17;;;;;;;23.02;45.88;98803.06;5041463;28;20040;-76
2021/06/08 04:24:58;;;;;;;47.13;26.90;;;;;;;23.11;44.69;98800.91;5091005;28;20043;-76
2021/06/08 04:27:28;;;;;;;55.42;28.35;;;;;;;22.93;44.45;98803.50;5058103;28;20046;-76
2021/06/08 04:29:54;;;;;;;45.63;24.27;;;;;;;22.93;44.35;98798.88;5075158;28;20157;-77
2021/06/08 04:32:20;;;;;;;36.38;21.38;;;;;;;22.96;44.22;98803.91;5057703;28;20386;-74
2021/06/08 04:34:54;;;;;;;39.55;20.45;;;;;;;23.04;44.31;98797.38;5041041;28;20412;-76
2021/06/08 04:37:20;;;;;;;39.83;20.25;;;;;;;23.18;44.71;98800.88;5025711;28;20055;-76
2021/06/08 04:39:46;;;;;;;34.13;19.50;;;;;;;23.22;44.58;98804.84;5041195;28;20040;-77
2021/06/08 04:42:13;;;;;;;35.25;17.45;;;;;;;23.26;44.65;98806.09;5074292;28;20075;-76
2021/06/08 04:44:46;;;;;;;35.45;16.60;;;;;;;23.35;44.27;98798.47;5074524;28;20090;-76
2021/06/08 04:47:12;;;;;;;23.27;15.55;;;;;;;23.24;43.78;98800.00;5058545;28;20079;-76
2021/06/08 04:49:39;;;;;;;26.45;16.77;;;;;;;23.07;44.60;98798.84;5092258;28;20584;-77
2021/06/08 04:52:06;;;;;;;25.50;16.02;;;;;;;23.04;44.68;98800.09;5097387;28;20051;-76
2021/06/08 04:54:32;;;;;;;35.83;14.93;;;;;;;23.37;44.67;98793.66;5064529;28;20048;-78
2021/06/08 04:56:58;;;;;;;32.92;14.55;;;;;;;23.74;43.92;98795.53;5113940;28;20418;-79
2021/06/08 04:59:34;;;;;;;27.02;12.48;;;;;;;23.84;43.66;98803.22;5079231;28;20051;-79
2021/06/08 05:02:08;;;;;;;33.97;10.40;;;;;;;23.68;43.83;98790.13;5096658;28;20047;-81
2021/06/08 05:04:37;;;;;;;19.77;8.88;;;;;;;23.79;43.64;98796.75;5080520;28;20035;-78
2021/06/08 05:07:05;;;;;;;19.33;7.80;;;;;;;23.74;43.67;98800.16;5063936;28;20044;-77
2021/06/08 05:09:32;;;;;;;23.17;7.50;;;;;;;23.59;44.19;98796.88;5096890;28;20047;-76
2021/06/08 05:11:59;;;;;;;26.65;6.70;;;;;;;23.84;44.13;98799.66;5098586;28;20059;-77
2021/06/08 05:14:25;;;;;;;24.70;12.90;;;;;;;24.21;43.88;98792.41;5081221;28;20044;-77
2021/06/08 05:16:51;;;;;;;20.70;5.82;;;;;;;24.54;43.50;98794.84;5081197;28;20120;-77
2021/06/08 05:19:17;;;;;;;38.97;7.35;;;;;;;24.54;42.88;98791.28;5081376;28;20043;-77
2021/06/08 05:21:44;;;;;;;30.42;7.07;;;;;;;24.67;43.28;98794.72;5047975;28;20070;-77
2021/06/08 05:24:14;;;;;;;32.50;8.00;;;;;;;24.47;42.92;98794.91;5116655;28;20039;-77
2021/06/08 05:26:45;;;;;;;28.30;7.35;;;;;;;24.54;43.07;98794.00;5064552;28;20135;-77
2021/06/08 05:29:11;;;;;;;23.80;8.80;;;;;;;24.79;42.51;98792.06;5047981;28;20040;-78
2021/06/08 05:31:37;;;;;;;28.83;8.30;;;;;;;24.90;41.09;98796.75;5097773;28;20047;-77
2021/06/08 05:34:03;;;;;;;36.13;12.75;;;;;;;24.95;39.92;98794.16;5116329;28;20070;-77
2021/06/08 05:36:30;;;;;;;30.17;11.07;;;;;;;25.04;40.28;98796.56;5097982;28;20101;-78
2021/06/08 05:38:56;;;;;;;34.10;13.13;;;;;;;25.12;40.39;98804.50;5064429;28;20497;-77
2021/06/08 05:41:22;;;;;;;33.47;9.82;;;;;;;24.89;41.40;98802.44;5116192;28;20035;-77
2021/06/08 05:43:48;;;;;;;38.92;10.43;;;;;;;25.03;41.62;98798.47;5115910;28;20048;-77
2021/06/08 05:46:14;;;;;;;24.00;12.60;;;;;;;24.95;41.92;98798.81;5097801;28;20192;-79
2021/06/08 05:48:40;;;;;;;36.30;10.43;;;;;;;25.09;42.16;98803.03;5081302;28;20484;-78
2021/06/08 05:51:06;;;;;;;29.20;10.55;;;;;;;24.92;41.47;98791.06;5116071;28;20063;-77
2021/06/08 05:53:33;;;;;;;19.33;7.45;;;;;;;24.75;41.40;98798.19;5116079;28;20120;-77
2021/06/08 05:55:59;;;;;;;23.50;8.25;;;;;;;24.57;41.34;98793.56;5064548;28;20130;-77
2021/06/08 05:58:25;;;;;;;26.67;7.85;;;;;;;24.65;41.89;98807.75;5081647;28;20067;-77
2021/06/08 06:00:52;;;;;;;33.13;8.05;;;;;;;24.71;41.83;98801.41;5097824;28;20044;-77
2021/06/08 06:03:18;;;;;;;24.60;6.07;;;;;;;24.80;40.71;98804.66;5064018;28;20040;-78
2021/06/08 06:05:44;;;;;;;15.27;5.18;;;;;;;25.08;39.44;98811.47;5097711;28;20138;-77
2021/06/08 06:08:11;;;;;;;25.73;5.22;;;;;;;25.20;39.79;98804.22;5080957;28;20050;-78
2021/06/08 06:10:37;;;;;;;28.23;5.93;;;;;;;25.43;39.76;98804.31;5080773;28;20055;-78
2021/06/08 06:13:03;;;;;;;23.33;4.90;;;;;;;25.54;39.55;98794.47;5115465;28;20447;-77
2021/06/08 06:15:29;;;;;;;21.70;4.30;;;;;;;25.47;38.51;98803.84;5080606;28;20047;-77
2021/06/08 06:17:55;;;;;;;27.55;4.22;;;;;;;25.36;38.55;98798.09;5064139;28;20414;-78
2021/06/08 06:20:21;;;;;;;21.20;4.40;;;;;;;25.60;38.94;98795.41;5063792;28;20459;-78
2021/06/08 06:22:47;;;;;;;10.63;4.05;;;;;;;25.92;39.04;98794.13;5063810;28;20035;-76
2021/06/08 06:25:13;;;;;;;20.48;5.00;;;;;;;26.43;38.22;98799.13;5115443;28;20059;-77
2021/06/08 06:27:40;;;;;;;22.83;4.38;;;;;;;26.30;34.50;98792.00;5080354;28;20130;-77
2021/06/08 06:30:08;;;;;;;14.20;3.85;;;;;;;26.30;34.10;98795.56;5046410;28;20043;-78
2021/06/08 06:32:34;;;;;;;11.83;3.50;;;;;;;26.39;34.67;98787.81;5063566;28;20035;-78
2021/06/08 06:35:01;;;;;;;15.18;3.80;;;;;;;26.63;35.19;98780.47;5080798;28;20119;-78
2021/06/08 06:37:27;;;;;;;19.40;4.53;;;;;;;26.81;34.55;98787.69;5063326;28;20049;-76
2021/06/08 06:39:54;;;;;;;25.88;5.15;;;;;;;26.97;34.20;98783.34;5063824;28;20079;-77
2021/06/08 06:42:20;;;;;;;19.15;4.95;;;;;;;26.93;34.13;98784.91;5080031;28;20043;-77
2021/06/08 06:44:46;;;;;;;23.15;5.18;;;;;;;26.96;34.11;98790.75;5063589;28;20047;-77
2021/06/08 06:47:15;;;;;;;18.67;5.18;;;;;;;26.99;34.25;98783.94;5080253;28;20215;-78
2021/06/08 06:49:41;;;;;;;23.98;5.57;;;;;;;27.18;33.69;98788.22;5080985;28;20391;-77
2021/06/08 06:52:07;;;;;;;25.13;5.72;;;;;;;27.10;34.07;98778.41;5047090;28;20059;-78
2021/06/08 06:54:33;;;;;;;26.23;5.97;;;;;;;27.18;33.92;98782.72;5080031;28;20119;-79
2021/06/08 06:57:00;;;;;;;27.00;5.43;;;;;;;27.57;33.83;98777.44;5096775;28;20570;-77
2021/06/08 06:59:26;;;;;;;36.45;6.43;;;;;;;27.69;33.04;98778.19;5047275;28;20042;-77
2021/06/08 07:01:52;;;;;;;32.50;6.47;;;;;;;27.56;32.69;98773.00;5079962;28;20043;-76
2021/06/08 07:04:18;;;;;;;29.08;6.00;;;;;;;27.54;32.08;98781.50;5096955;28;20082;-77
2021/06/08 07:06:45;;;;;;;38.03;6.40;;;;;;;27.79;32.77;98778.38;5079738;28;20035;-77
2021/06/08 07:09:11;;;;;;;51.63;6.68;;;;;;;27.89;32.39;98777.72;5046624;28;20471;-77
2021/06/08 07:11:37;;;;;;;51.95;6.63;;;;;;;27.91;32.88;98772.84;5062738;28;20130;-76
2021/06/08 07:14:04;;;;;;;44.70;6.10;;;;;;;28.17;32.62;98768.59;5045694;28;20082;-79
2021/06/08 07:16:30;;;;;;;35.13;6.38;;;;;;;28.35;32.28;98775.72;5114630;28;20085;-77
2021/06/08 07:18:55;;;;;;;33.30;6.82;;;;;;;28.53;32.27;98777.38;5079785;28;20077;-78
2021/06/08 07:21:23;;;;;;;35.92;6.57;;;;;;;28.41;32.08;98779.41;5114406;28;20130;-78
2021/06/08 07:23:50;;;;;;;30.63;7.27;;;;;;;28.18;31.62;98769.41;5063033;28;20069;-79
2021/06/08 07:26:19;;;;;;;37.10;6.72;;;;;;;28.44;31.06;98777.00;5079221;28;20058;-77
2021/06/08 07:28:45;;;;;;;34.30;5.75;;;;;;;28.67;30.70;98781.44;5096819;28;20047;-77
2021/06/08 07:31:13;;;;;;;35.20;5.35;;;;;;;28.84;30.75;98773.13;5079320;28;20039;-78
2021/06/08 07:33:49;;;;;;;25.83;5.60;;;;;;;28.51;29.94;98787.78;5079372;28;20130;-78
2021/06/08 07:36:20;;;;;;;30.83;5.28;;;;;;;28.77;30.34;98777.97;5079036;28;20512;-78
2021/06/08 07:38:59;;;;;;;20.98;5.03;;;;;;;28.83;30.02;98768.72;5079422;28;20044;-78
2021/06/08 07:41:43;;;;;;;38.30;6.47;;;;;;;29.22;30.52;98772.22;5062458;28;20490;-78
2021/06/08 07:44:17;;;;;;;36.00;4.80;;;;;;;29.44;30.19;98765.84;5114065;28;20035;-77
2021/06/08 07:46:43;;;;;;;27.25;4.90;;;;;;;29.38;29.54;98761.41;5061997;28;20052;-78
2021/06/08 07:49:10;;;;;;;26.65;4.97;;;;;;;29.23;30.00;98767.56;5062085;28;20047;-78
2021/06/08 07:51:41;;;;;;;21.80;4.32;;;;;;;29.31;30.17;98749.78;5062218;28;20086;-78
2021/06/08 07:54:07;;;;;;;15.18;3.50;;;;;;;29.71;29.45;98755.72;5062995;28;20039;-78
2021/06/08 07:56:34;;;;;;;20.42;3.80;;;;;;;30.11;29.58;98762.63;5113646;28;20054;-77
2021/06/08 07:59:00;;;;;;;13.25;3.25;;;;;;;30.54;29.39;98762.66;5078938;28;20044;-79
2021/06/08 08:01:26;;;;;;;13.35;3.10;;;;;;;30.82;28.17;98765.06;5078678;28;20120;-79
2021/06/08 08:03:53;;;;;;;21.38;3.50;;;;;;;30.96;26.92;98757.13;5062388;28;20115;-78
2021/06/08 08:06:19;;;;;;;23.23;3.83;;;;;;;30.74;26.85;98762.81;5079178;28;20103;-78
2021/06/08 08:08:47;;;;;;;11.25;3.42;;;;;;;30.55;27.49;98759.66;5062583;28;20104;-79
2021/06/08 08:11:15;;;;;;;16.73;3.70;;;;;;;30.32;26.55;98752.63;5095929;28;20184;-77
2021/06/08 08:13:42;;;;;;;25.00;3.75;;;;;;;30.48;27.44;98748.03;5078340;28;20058;-78
2021/06/08 08:16:09;;;;;;;17.23;3.00;;;;;;;30.46;27.03;98751.03;5044938;28;20035;-77
2021/06/08 08:18:35;;;;;;;14.13;3.20;;;;;;;30.63;27.20;98750.03;5078454;28;20040;-78
2021/06/08 08:21:02;;;;;;;21.10;2.60;;;;;;;30.86;26.25;98746.84;5095215;28;20046;-74
2021/06/08 08:23:29;;;;;;;13.98;2.30;;;;;;;30.68;26.43;98753.63;5095195;28;20047;-77
2021/06/08 08:25:55;;;;;;;12.93;2.20;;;;;;;30.87;26.23;98750.44;5094392;28;20138;-79
2021/06/08 08:28:22;;;;;;;6.18;2.15;;;;;;;30.98;25.94;98735.59;5078584;28;20062;-79
2021/06/08 08:30:48;;;;;;;11.68;2.55;;;;;;;30.94;25.74;98738.06;5078410;28;20088;-78
2021/06/08 08:33:16;;;;;;;;;;;;;;;30.75;25.68;98749.84;5079749;28;20104;-79
2021/06/08 08:35:42;;;;;;;12.68;2.60;;;;;;;30.11;26.13;98743.34;5095677;28;20002;-77
2021/06/08 08:38:08;;;;;;;7.57;2.10;;;;;;;30.42;26.84;98746.31;5061615;28;20075;-77
2021/06/08 08:40:34;;;;;;;15.45;2.10;;;;;;;31.02;26.62;98742.22;5061661;28;20142;-78
2021/06/08 08:43:01;;;;;;;7.28;1.85;;;;;;;31.55;25.96;98742.09;5061706;28;20149;-78
2021/06/08 08:45:31;;;;;;;9.88;1.75;;;;;;;31.39;24.79;98735.72;5094753;28;20501;-77
2021/06/08 08:47:57;;;;;;;5.63;1.92;;;;;;;31.50;25.09;98731.88;5078466;28;20043;-78
2021/06/08 08:50:23;;;;;;;7.30;1.80;;;;;;;32.01;24.70;98733.84;5094961;28;20067;-79
2021/06/08 08:52:58;;;;;;;4.85;1.67;;;;;;;31.81;24.29;98729.13;5091242;28;20096;-78
2021/06/08 08:55:29;;;;;;;7.60;1.90;;;;;;;31.75;24.59;98722.78;5060376;28;20040;-77
2021/06/08 08:57:57;;;;;;;5.43;1.65;;;;;;;31.96;24.33;98718.09;5058550;28;20491;-77
2021/06/08 09:00:25;;;;;;;3.42;1.80;;;;;;;32.46;24.70;98727.47;5074789;28;20177;-79
2021/06/08 09:02:54;;;;;;;6.50;1.80;;;;;;;32.51;23.63;98719.13;5075044;28;20040;-78
2021/06/08 09:05:21;;;;;;;6.65;2.22;;;;;;;32.82;23.79;98717.06;5058010;28;20044;-79
2021/06/08 09:07:47;;;;;;;7.15;1.55;;;;;;;32.91;22.75;98722.84;5057471;28;20509;-79
2021/06/08 09:10:13;;;;;;;3.67;1.40;;;;;;;32.86;22.74;98720.09;5098082;28;20075;-78
2021/06/08 09:12:40;;;;;;;4.20;1.75;;;;;;;32.90;23.34;98718.41;5075975;28;20051;-80
2021/06/08 09:15:06;;;;;;;6.13;1.52;;;;;;;32.91;23.32;98710.94;5113432;28;20043;-78
2021/06/08 09:17:33;;;;;;;3.95;1.40;;;;;;;32.52;23.58;98725.50;5078893;28;20134;-80
2021/06/08 09:19:59;;;;;;;6.65;1.73;;;;;;;31.91;23.83;98718.13;5078117;28;20047;-78
2021/06/08 09:22:46;;;;;;;2.97;1.50;;;;;;;31.73;23.84;98724.16;5111854;28;20120;-79
2021/06/08 09:25:12;;;;;;;6.28;1.33;;;;;;;31.51;24.29;98722.47;5112840;28;20115;-78
2021/06/08 09:27:39;;;;;;;9.73;1.60;;;;;;;31.43;24.47;98715.56;5107034;28;20519;-79
2021/06/08 09:30:14;;;;;;;11.65;1.95;;;;;;;31.69;24.73;98715.59;5057994;28;20123;-80
2021/06/08 09:32:40;;;;;;;6.80;2.22;;;;;;;32.04;24.88;98713.94;5041532;28;20040;-80
2021/06/08 09:35:07;;;;;;;8.35;1.80;;;;;;;32.03;24.09;98704.81;5041415;28;20047;-81
2021/06/08 09:37:43;;;;;;;3.20;1.60;;;;;;;31.93;24.14;98702.06;5076244;28;20050;-80
2021/06/08 09:40:25;;;;;;;2.00;1.40;;;;;;;31.21;23.73;98701.97;5080427;28;20035;-76
2021/06/08 09:43:03;;;;;;;11.02;1.67;;;;;;;31.23;24.79;98709.16;5095230;28;20040;-79
2021/06/08 09:45:38;;;;;;;;;;;;;;;31.55;24.88;98707.00;5096458;28;20052;-78
2021/06/08 09:48:04;;;;;;;13.98;2.15;;;;;;;32.00;24.87;98691.56;5080769;28;19920;-75
2021/06/08 09:50:31;;;;;;;7.80;2.20;;;;;;;32.67;24.76;98696.94;5080938;28;20031;-76
2021/06/08 09:53:17;;;;;;;12.00;2.05;;;;;;;32.79;24.13;98680.81;5097483;28;20530;-78
2021/06/08 09:55:53;;;;;;;6.72;1.77;;;;;;;32.94;24.23;98682.72;5114640;28;20456;-76
2021/06/08 09:58:20;;;;;;;13.98;2.67;;;;;;;32.58;24.23;98689.22;5081266;28;20044;-73
2021/06/08 10:01:05;;;;;;;8.52;2.05;;;;;;;32.59;24.77;98692.81;5097852;28;20035;-74
2021/06/08 10:03:51;;;;;;;7.80;2.05;;;;;;;33.48;23.94;98691.00;5081106;28;20039;-76
2021/06/08 10:06:34;;;;;;;7.00;1.98;;;;;;;33.95;23.78;98689.47;5063434;28;20042;-76
2021/06/08 10:09:01;;;;;;;15.68;2.72;;;;;;;34.58;23.08;98694.13;5082646;28;20491;-76
2021/06/08 10:11:32;;;;;;;8.50;2.00;;;;;;;34.67;22.41;98691.53;5097575;28;20134;-74
2021/06/08 10:14:18;;;;;;;5.72;1.83;;;;;;;34.53;21.92;98686.72;5064331;28;20038;-75
2021/06/08 10:16:59;;;;;;;7.13;1.90;;;;;;;34.18;22.77;98678.75;5098468;28;20541;-77
2021/06/08 10:19:25;;;;;;;11.90;2.08;;;;;;;33.99;22.94;98682.25;5114342;28;20078;-79
2021/06/08 10:21:52;;;;;;;6.88;2.20;;;;;;;33.57;22.76;98664.31;5063113;28;20146;-76
2021/06/08 10:24:25;;;;;;;11.02;1.67;;;;;;;33.14;23.17;98674.31;5097324;28;20134;-76
2021/06/08 10:26:53;;;;;;;5.60;1.92;;;;;;;32.64;23.91;98679.78;5063523;28;20063;-77
2021/06/08 10:29:30;;;;;;;9.60;2.10;;;;;;;32.13;24.36;98679.94;5064153;28;20521;-77
2021/06/08 10:32:00;;;;;;;5.32;2.08;;;;;;;31.68;25.42;98678.03;5098049;28;20043;-77
2021/06/08 10:34:28;;;;;;;10.60;1.90;;;;;;;31.85;25.47;98684.09;5115715;28;20047;-79
2021/06/08 10:36:53;;;;;;;6.18;1.80;;;;;;;31.65;25.74;98684.91;5064163;28;20050;-78
2021/06/08 10:39:25;;;;;;;5.93;1.77;;;;;;;31.59;25.94;98691.53;5097297;28;20387;-77
2021/06/08 10:41:51;;;;;;;24.63;16.20;;;;;;;31.63;25.87;98687.16;5115478;27;20051;-77
2021/06/08 10:44:28;;;;;;;13.13;3.13;;;;;;;32.02;25.78;98697.66;5114198;28;20044;-77
2021/06/08 10:46:56;;;;;;;10.88;2.00;;;;;;;31.98;25.77;98688.25;5114115;28;20471;-78
2021/06/08 10:49:35;;;;;;;12.20;1.83;;;;;;;31.76;26.02;98696.81;5096215;28;20105;-79
2021/06/08 10:52:02;;;;;;;7.10;1.90;;;;;;;32.01;25.69;98696.00;5083488;27;20081;-78
2021/06/08 10:54:28;;;;;;;13.18;2.15;;;;;;;32.07;25.43;98699.56;5100847;27;20047;-77
2021/06/08 10:56:58;;;;;;;16.35;1.95;;;;;;;32.15;25.06;98688.75;5117029;27;20065;-76
2021/06/08 10:59:37;;;;;;;3.95;1.70;;;;;;;32.43;25.24;98688.47;5116060;27;20451;-78
2021/06/08 11:02:04;;;;;;;9.60;2.20;;;;;;;32.43;24.95;98697.59;5076015;28;20043;-77
2021/06/08 11:04:51;;;;;;;9.48;1.90;;;;;;;32.38;24.86;98694.78;5115363;28;20517;-79
2021/06/08 11:07:42;;;;;;;6.80;2.00;;;;;;;32.37;25.10;98695.91;5104476;27;20039;-78
2021/06/08 11:10:46;;;;;;;8.10;1.88;;;;;;;32.54;25.08;98690.91;5118113;27;20039;-77
2021/06/08 11:13:16;;;;;;;12.00;2.38;;;;;;;32.67;25.16;98691.41;5015820;28;20046;-79
2021/06/08 11:15:49;;;;;;;9.70;2.10;;;;;;;32.69;25.39;98683.66;5118690;27;20050;-85
2021/06/08 11:18:22;;;;;;;20.50;2.50;;;;;;;31.33;28.83;98695.38;5100762;27;20035;-80
2021/06/08 11:20:49;;;;;;;21.52;3.10;;;;;;;30.89;30.05;98696.66;5116695;27;20058;-79
2021/06/08 11:23:43;;;;;;;25.58;3.25;;;;;;;30.67;30.42;98696.81;5116401;27;20070;-82
2021/06/08 11:26:13;;;;;;;47.20;4.07;;;;;;;30.72;30.63;98699.56;5100464;27;20440;-79
2021/06/08 11:28:43;;;;;;;99.63;6.03;;;;;;;29.94;31.58;98693.03;5114006;27;20051;-79
2021/06/08 11:31:09;;;;;;;33.10;3.70;;;;;;;29.77;32.04;98707.81;5104947;27;20035;-79
2021/06/08 11:33:37;;;;;;;25.05;3.92;;;;;;;29.52;32.40;98691.03;5078284;27;20043;-77